createdAt,value
2022-12-08T00:01:15.470Z,3.20
2022-12-08T00:03:42.807Z,3.20
2022-12-08T00:07:01.165Z,3.20
2022-12-08T00:09:38.256Z,3.30
2022-12-08T00:12:11.699Z,3.40
2022-12-08T00:14:43.699Z,3.40
2022-12-08T00:17:12.499Z,3.50
2022-12-08T00:19:40.430Z,3.50
2022-12-08T00:22:08.254Z,3.50
2022-12-08T00:24:39.440Z,3.50
2022-12-08T00:27:08.419Z,3.50
2022-12-08T00:29:35.179Z,3.60
2022-12-08T00:32:02.005Z,3.60
2022-12-08T00:34:28.799Z,3.60
2022-12-08T00:36:55.474Z,3.60
2022-12-08T00:39:22.312Z,3.70
2022-12-08T00:42:07.823Z,3.70
2022-12-08T00:44:34.507Z,3.70
2022-12-08T00:47:01.222Z,3.70
2022-12-08T00:49:27.927Z,3.70
2022-12-08T00:51:54.939Z,3.70
2022-12-08T00:54:23.064Z,3.70
2022-12-08T00:56:49.901Z,3.70
2022-12-08T00:59:16.753Z,3.70
2022-12-08T01:01:47.234Z,3.70
2022-12-08T01:04:16.126Z,3.70
2022-12-08T01:06:43.909Z,3.70
2022-12-08T01:09:12.851Z,3.70
2022-12-08T01:11:39.542Z,3.70
2022-12-08T01:14:06.226Z,3.70
2022-12-08T01:16:35.583Z,3.70
2022-12-08T01:19:03.305Z,3.70
2022-12-08T01:21:30.087Z,3.70
2022-12-08T01:23:59.958Z,3.70
2022-12-08T01:26:26.739Z,3.70
2022-12-08T01:28:53.430Z,3.70
2022-12-08T01:31:21.596Z,3.70
2022-12-08T01:33:48.586Z,3.70
2022-12-08T01:36:29.242Z,3.80
2022-12-08T01:38:59.126Z,3.80
2022-12-08T01:41:28.515Z,3.80
2022-12-08T01:44:24.345Z,3.80
2022-12-08T01:46:53.543Z,3.80
2022-12-08T01:49:28.314Z,3.80
2022-12-08T01:52:10.342Z,3.90
2022-12-08T01:55:02.447Z,3.90
2022-12-08T01:57:43.423Z,3.90
2022-12-08T02:00:15.449Z,3.90
2022-12-08T02:03:02.090Z,3.90
2022-12-08T02:05:33.134Z,4.00
2022-12-08T02:08:04.366Z,3.90
2022-12-08T02:10:34.806Z,4.00
2022-12-08T02:13:03.287Z,4.00
2022-12-08T02:15:47.428Z,4.00
2022-12-08T02:18:28.277Z,4.10
2022-12-08T02:21:05.930Z,4.00
2022-12-08T02:23:55.823Z,4.10
2022-12-08T02:26:45.652Z,4.10
2022-12-08T02:29:36.375Z,4.10
2022-12-08T02:32:33.943Z,4.10
2022-12-08T02:38:53.980Z,4.10
2022-12-08T02:41:45.544Z,4.10
2022-12-08T02:44:22.754Z,4.10
2022-12-08T02:47:09.203Z,4.10
2022-12-08T02:49:36.537Z,4.10
2022-12-08T02:52:12.040Z,4.10
2022-12-08T02:55:02.438Z,4.10
2022-12-08T02:58:06.897Z,4.10
2022-12-08T03:00:57.010Z,4.10
2022-12-08T03:03:32.818Z,4.10
2022-12-08T03:06:50.824Z,4.10
2022-12-08T03:09:21.832Z,4.10
2022-12-08T03:12:12.620Z,4.10
2022-12-08T03:14:43.191Z,4.00
2022-12-08T03:17:15.779Z,4.00
2022-12-08T03:19:43.809Z,4.00
2022-12-08T03:22:13.643Z,4.00
2022-12-08T03:24:43.516Z,4.00
2022-12-08T03:27:14.983Z,4.00
2022-12-08T03:29:41.785Z,4.10
2022-12-08T03:32:29.889Z,4.10
2022-12-08T03:34:59.121Z,4.10
2022-12-08T03:37:27.500Z,4.10
2022-12-08T03:39:54.306Z,4.10
2022-12-08T03:42:21.059Z,4.10
2022-12-08T03:44:47.726Z,4.10
2022-12-08T03:47:14.425Z,4.20
2022-12-08T03:49:41.069Z,4.10
2022-12-08T03:52:08.824Z,4.10
2022-12-08T03:54:35.501Z,4.20
2022-12-08T03:57:02.183Z,4.20
2022-12-08T03:59:28.979Z,4.20
2022-12-08T04:01:55.703Z,4.30
2022-12-08T04:04:22.736Z,4.30
2022-12-08T04:06:50.517Z,4.30
2022-12-08T04:09:17.471Z,4.30
2022-12-08T04:11:44.192Z,4.40
2022-12-08T04:14:10.896Z,4.40
2022-12-08T04:16:37.701Z,4.30
2022-12-08T04:19:04.519Z,4.40
2022-12-08T04:21:31.209Z,4.40
2022-12-08T04:24:01.318Z,4.30
2022-12-08T04:26:28.734Z,4.40
2022-12-08T04:28:55.442Z,4.30
2022-12-08T04:31:22.323Z,4.30
2022-12-08T04:33:50.094Z,4.40
2022-12-08T04:36:16.793Z,4.40
2022-12-08T04:38:43.621Z,4.40
2022-12-08T04:41:10.661Z,4.40
2022-12-08T04:43:37.412Z,4.40
2022-12-08T04:46:08.785Z,4.40
2022-12-08T04:48:37.946Z,4.40
2022-12-08T04:51:05.473Z,4.40
2022-12-08T04:53:32.335Z,4.30
2022-12-08T04:55:59.126Z,4.30
2022-12-08T04:58:25.879Z,4.20
2022-12-08T05:00:52.647Z,4.30
2022-12-08T05:03:23.829Z,4.30
2022-12-08T05:05:54.908Z,4.30
2022-12-08T05:08:21.787Z,4.30
2022-12-08T05:10:48.515Z,4.30
2022-12-08T05:13:15.232Z,4.30
2022-12-08T05:15:41.932Z,4.40
2022-12-08T05:18:08.683Z,4.40
2022-12-08T05:20:36.067Z,4.40
2022-12-08T05:23:03.113Z,4.40
2022-12-08T05:25:29.851Z,4.40
2022-12-08T05:28:17.656Z,4.40
2022-12-08T05:30:43.217Z,4.40
2022-12-08T05:33:11.063Z,4.40
2022-12-08T05:35:37.808Z,4.40
2022-12-08T05:38:05.122Z,4.40
2022-12-08T05:40:31.873Z,4.40
2022-12-08T05:42:58.539Z,4.40
2022-12-08T05:45:25.258Z,4.40
2022-12-08T05:47:53.718Z,4.40
2022-12-08T05:50:20.460Z,4.30
2022-12-08T05:52:47.152Z,4.30
2022-12-08T05:55:13.858Z,4.30
2022-12-08T05:57:40.786Z,4.30
2022-12-08T06:00:10.618Z,4.20
2022-12-08T06:02:37.418Z,4.30
2022-12-08T06:05:04.442Z,4.20
2022-12-08T06:07:31.178Z,4.30
2022-12-08T06:09:57.829Z,4.30
2022-12-08T06:12:24.576Z,4.30
2022-12-08T06:14:51.302Z,4.30
2022-12-08T06:17:18.058Z,4.20
2022-12-08T06:19:44.702Z,4.20
2022-12-08T06:22:11.428Z,4.20
2022-12-08T06:24:38.096Z,4.20
2022-12-08T06:27:04.836Z,4.20
2022-12-08T06:29:34.256Z,4.20
2022-12-08T06:32:00.972Z,4.20
2022-12-08T06:34:27.754Z,4.20
2022-12-08T06:36:54.432Z,4.10
2022-12-08T06:39:21.105Z,4.10
2022-12-08T06:42:06.594Z,4.00
2022-12-08T06:44:33.260Z,4.00
2022-12-08T06:46:59.926Z,3.90
2022-12-08T06:49:26.624Z,3.90
2022-12-08T06:51:53.336Z,3.90
2022-12-08T06:54:19.994Z,3.80
2022-12-08T06:56:46.691Z,3.80
2022-12-08T06:59:13.436Z,3.80
2022-12-08T07:01:40.201Z,3.80
2022-12-08T07:04:06.955Z,3.80
2022-12-08T07:06:33.615Z,3.70
2022-12-08T07:09:00.346Z,3.70
2022-12-08T07:11:27.172Z,3.70
2022-12-08T07:13:56.915Z,3.60
2022-12-08T07:16:24.539Z,3.70
2022-12-08T07:18:51.309Z,3.60
2022-12-08T07:21:18.188Z,3.60
2022-12-08T07:23:54.442Z,3.60
2022-12-08T07:26:24.408Z,3.60
2022-12-08T07:28:51.071Z,3.60
2022-12-08T07:31:23.839Z,3.60
2022-12-08T07:33:54.048Z,3.70
2022-12-08T07:36:21.726Z,3.70
2022-12-08T07:38:48.990Z,3.70
2022-12-08T07:41:18.333Z,3.70
2022-12-08T07:43:45.474Z,3.70
2022-12-08T07:46:18.148Z,3.70
2022-12-08T07:48:45.151Z,3.70
2022-12-08T07:51:13.745Z,3.70
2022-12-08T07:53:51.582Z,3.80
2022-12-08T07:56:20.400Z,3.80
2022-12-08T07:58:47.147Z,3.80
2022-12-08T08:01:28.626Z,3.80
2022-12-08T08:03:57.621Z,3.90
2022-12-08T08:06:24.936Z,3.90
2022-12-08T08:08:51.681Z,3.90
2022-12-08T08:11:21.230Z,3.90
2022-12-08T08:13:48.355Z,3.90
2022-12-08T08:16:15.278Z,3.90
2022-12-08T08:18:43.456Z,3.90
2022-12-08T08:21:43.194Z,3.90
2022-12-08T08:23:56.878Z,3.90
2022-12-08T08:26:23.553Z,3.90
2022-12-08T08:28:50.246Z,3.90
2022-12-08T08:31:17.059Z,4.00
2022-12-08T08:33:43.776Z,4.00
2022-12-08T08:36:10.969Z,4.00
2022-12-08T08:38:42.736Z,4.00
2022-12-08T08:41:10.663Z,4.00
2022-12-08T08:43:38.761Z,4.00
2022-12-08T08:46:07.056Z,4.00
2022-12-08T08:48:34.379Z,4.00
2022-12-08T08:51:11.811Z,4.10
2022-12-08T08:53:38.648Z,4.10
2022-12-08T08:56:13.382Z,4.10
2022-12-08T08:58:40.457Z,4.10
2022-12-08T09:01:07.196Z,4.20
2022-12-08T09:03:33.882Z,4.20
2022-12-08T09:06:00.670Z,4.30
2022-12-08T09:08:27.440Z,4.30
2022-12-08T09:10:54.822Z,4.40
2022-12-08T09:13:22.298Z,4.30
2022-12-08T09:15:49.194Z,4.30
2022-12-08T09:18:15.913Z,4.40
2022-12-08T09:20:42.675Z,4.40
2022-12-08T09:23:09.372Z,4.40
2022-12-08T09:25:36.682Z,4.40
2022-12-08T09:28:03.398Z,4.40
2022-12-08T09:30:30.102Z,4.40
2022-12-08T09:32:56.832Z,4.40
2022-12-08T09:35:23.507Z,4.30
2022-12-08T09:37:50.227Z,4.40
2022-12-08T09:40:20.324Z,4.40
2022-12-08T09:43:03.130Z,4.40
2022-12-08T09:45:34.885Z,4.40
2022-12-08T09:48:19.932Z,4.40
2022-12-08T09:50:56.097Z,4.40
2022-12-08T09:53:36.258Z,4.50
2022-12-08T09:56:09.180Z,4.50
2022-12-08T09:58:46.043Z,4.60
2022-12-08T10:01:13.557Z,4.50
2022-12-08T10:03:40.735Z,4.50
2022-12-08T10:06:11.025Z,4.60
2022-12-08T10:09:02.875Z,4.60
2022-12-08T10:11:40.073Z,4.60
2022-12-08T10:14:20.942Z,4.50
2022-12-08T10:16:50.166Z,4.60
2022-12-08T10:19:26.759Z,4.50
2022-12-08T10:21:54.355Z,4.50
2022-12-08T10:24:33.551Z,4.50
2022-12-08T10:27:02.185Z,4.50
2022-12-08T10:29:28.909Z,4.50
2022-12-08T10:31:59.648Z,4.60
2022-12-08T10:34:26.684Z,4.60
2022-12-08T10:36:58.783Z,4.60
2022-12-08T10:39:36.457Z,4.60
2022-12-08T10:42:07.141Z,4.60
2022-12-08T10:44:38.364Z,4.60
2022-12-08T10:47:12.514Z,4.60
2022-12-08T10:49:39.227Z,4.60
2022-12-08T10:52:25.276Z,4.60
2022-12-08T10:54:55.028Z,4.60
2022-12-08T10:57:23.721Z,4.60
2022-12-08T10:59:50.449Z,4.70
2022-12-08T11:02:20.226Z,4.70
2022-12-08T11:04:47.311Z,4.80
2022-12-08T11:07:22.108Z,4.80
2022-12-08T11:09:53.075Z,4.80
2022-12-08T11:12:21.353Z,4.80
2022-12-08T11:14:59.046Z,4.80
2022-12-08T11:17:27.882Z,4.80
2022-12-08T11:20:06.534Z,4.90
2022-12-08T11:22:41.210Z,4.90
2022-12-08T11:25:07.911Z,4.90
2022-12-08T11:27:39.334Z,4.90
2022-12-08T11:30:26.055Z,4.90
2022-12-08T11:33:13.849Z,5.00
2022-12-08T11:35:43.849Z,5.00
2022-12-08T11:38:23.770Z,4.90
2022-12-08T11:41:01.359Z,5.00
2022-12-08T11:43:36.679Z,5.00
2022-12-08T11:46:38.359Z,5.00
2022-12-08T11:49:13.563Z,5.00
2022-12-08T11:51:48.597Z,5.10
2022-12-08T11:54:27.056Z,5.10
2022-12-08T11:56:57.420Z,5.10
2022-12-08T11:59:41.738Z,5.10
2022-12-08T12:02:17.375Z,5.10
2022-12-08T12:05:04.857Z,5.10
2022-12-08T12:07:54.248Z,5.10
2022-12-08T12:10:25.519Z,5.10
2022-12-08T12:12:52.143Z,5.10
2022-12-08T12:15:40.452Z,5.20
2022-12-08T12:18:47.866Z,5.20
2022-12-08T12:21:31.681Z,5.20
2022-12-08T12:24:06.891Z,5.30
2022-12-08T12:26:37.939Z,5.30
2022-12-08T12:29:17.163Z,5.20
2022-12-08T12:31:49.719Z,5.20
2022-12-08T12:34:29.169Z,5.20
2022-12-08T12:37:12.742Z,5.30
2022-12-08T12:39:55.337Z,5.40
2022-12-08T12:42:38.021Z,5.40
2022-12-08T12:45:17.515Z,5.40
2022-12-08T12:47:55.815Z,5.30
2022-12-08T12:50:35.121Z,5.30
2022-12-08T12:53:26.343Z,5.30
2022-12-08T12:56:00.219Z,5.30
2022-12-08T12:58:29.966Z,5.20
2022-12-08T13:01:08.587Z,5.20
2022-12-08T13:03:36.076Z,5.10
2022-12-08T13:06:03.223Z,5.10
2022-12-08T13:08:30.749Z,5.00
2022-12-08T13:11:04.796Z,5.00
2022-12-08T13:13:31.834Z,5.00
2022-12-08T13:16:17.169Z,5.00
2022-12-08T13:18:50.935Z,5.00
2022-12-08T13:21:20.833Z,4.90
2022-12-08T13:24:08.784Z,4.90
2022-12-08T13:26:47.422Z,4.90
2022-12-08T13:29:20.510Z,4.90
2022-12-08T13:31:52.066Z,4.90
2022-12-08T13:34:31.611Z,5.00
2022-12-08T13:37:25.348Z,5.10
2022-12-08T13:40:25.501Z,5.10
2022-12-08T13:43:09.951Z,5.10
2022-12-08T13:46:31.811Z,5.00
2022-12-08T13:50:22.970Z,4.90
2022-12-08T13:53:41.921Z,4.80
2022-12-08T13:55:13.625Z,4.70
2022-12-08T13:57:29.428Z,4.70
2022-12-08T14:00:20.246Z,4.70
2022-12-08T14:02:48.961Z,4.60
2022-12-08T14:05:19.828Z,4.60
2022-12-08T14:07:54.822Z,4.50
2022-12-08T14:10:31.855Z,4.50
2022-12-08T14:13:02.727Z,4.30
2022-12-08T14:15:37.597Z,4.30
2022-12-08T14:18:05.979Z,4.20
2022-12-08T14:20:51.771Z,4.20
2022-12-08T14:23:21.402Z,4.20
2022-12-08T14:25:48.566Z,4.20
2022-12-08T14:28:15.396Z,4.20
2022-12-08T14:30:42.340Z,4.20
2022-12-08T14:33:15.135Z,4.10
2022-12-08T14:35:41.834Z,4.10
2022-12-08T14:38:16.686Z,4.10
2022-12-08T14:41:07.776Z,4.00
2022-12-08T14:43:35.186Z,4.00
2022-12-08T14:46:22.775Z,3.90
2022-12-08T14:48:49.618Z,3.90
2022-12-08T14:51:19.355Z,3.90
2022-12-08T14:53:55.974Z,3.90
2022-12-08T14:56:27.959Z,3.90
2022-12-08T14:59:14.726Z,3.90
2022-12-08T15:01:43.101Z,3.90
2022-12-08T15:04:12.885Z,3.90
2022-12-08T15:07:07.782Z,3.90
2022-12-08T15:09:43.667Z,3.90
2022-12-08T15:12:13.118Z,3.80
2022-12-08T15:15:01.894Z,3.80
2022-12-08T15:17:40.520Z,3.80
2022-12-08T15:20:33.163Z,3.80
2022-12-08T15:23:01.915Z,3.80
2022-12-08T15:25:28.641Z,3.80
2022-12-08T15:27:57.043Z,3.80
2022-12-08T15:30:28.801Z,3.80
2022-12-08T15:32:56.428Z,3.80
2022-12-08T15:35:24.380Z,3.70
2022-12-08T15:37:51.174Z,3.60
2022-12-08T15:40:21.204Z,3.60
2022-12-08T15:42:48.878Z,3.60
2022-12-08T15:45:17.000Z,3.50
2022-12-08T15:47:44.788Z,3.50
2022-12-08T15:50:20.217Z,3.40
2022-12-08T15:52:47.546Z,3.40
2022-12-08T15:55:15.628Z,3.40
2022-12-08T15:58:44.543Z,3.40
2022-12-08T16:09:12.496Z,3.40
2022-12-08T16:12:08.357Z,3.40
2022-12-08T16:17:23.432Z,3.40
2022-12-08T16:19:50.119Z,3.40
2022-12-08T16:25:18.141Z,3.40
2022-12-08T16:30:34.023Z,3.40
2022-12-08T16:33:00.868Z,3.40
2022-12-08T16:35:27.735Z,3.40
2022-12-08T16:37:54.594Z,3.50
2022-12-08T16:40:21.592Z,3.50
2022-12-08T16:42:50.126Z,3.50
2022-12-08T16:45:22.371Z,3.50
2022-12-08T16:48:00.138Z,3.50
2022-12-08T16:50:32.657Z,3.50
2022-12-08T16:53:11.197Z,3.50
2022-12-08T16:55:38.904Z,3.50
2022-12-08T16:58:06.023Z,3.40
2022-12-08T17:00:37.306Z,3.40
2022-12-08T17:03:06.072Z,3.40
2022-12-08T17:05:32.864Z,3.40
2022-12-08T17:08:00.023Z,3.40
2022-12-08T17:10:30.336Z,3.30
2022-12-08T17:12:57.304Z,3.30
2022-12-08T17:15:25.761Z,3.30
2022-12-08T17:17:53.128Z,3.30
2022-12-08T17:20:23.436Z,3.20
2022-12-08T17:22:53.762Z,3.20
2022-12-08T17:25:20.568Z,3.20
2022-12-08T17:27:47.525Z,3.10
2022-12-08T17:30:15.795Z,3.10
2022-12-08T17:32:43.173Z,3.10
2022-12-08T17:35:10.570Z,3.00
2022-12-08T17:37:37.355Z,3.00
2022-12-08T17:40:05.148Z,2.90
2022-12-08T17:42:34.719Z,2.90
2022-12-08T17:45:01.405Z,2.80
2022-12-08T17:47:28.764Z,2.80
2022-12-08T17:49:56.053Z,2.80
2022-12-08T17:52:23.090Z,2.90
2022-12-08T17:54:49.769Z,2.90
2022-12-08T17:57:16.443Z,3.00
2022-12-08T17:59:43.145Z,3.00
2022-12-08T18:02:11.708Z,3.10
2022-12-08T18:04:38.553Z,3.10
2022-12-08T18:07:05.357Z,3.10
2022-12-08T18:09:32.722Z,3.20
2022-12-08T18:11:59.691Z,3.20
2022-12-08T18:14:26.451Z,3.30
2022-12-08T18:16:53.393Z,3.30
2022-12-08T18:19:20.346Z,3.30
2022-12-08T18:21:47.074Z,3.30
2022-12-08T18:24:19.662Z,3.30
2022-12-08T18:26:46.930Z,3.30
2022-12-08T18:29:13.741Z,3.30
2022-12-08T18:31:40.541Z,3.30
2022-12-08T18:34:07.201Z,3.30
2022-12-08T18:36:33.963Z,3.30
2022-12-08T18:39:03.458Z,3.20
2022-12-08T18:41:34.011Z,3.30
2022-12-08T18:44:00.699Z,3.30
2022-12-08T18:46:27.432Z,3.30
2022-12-08T18:48:54.290Z,3.40
2022-12-08T18:51:24.669Z,3.40
2022-12-08T18:53:52.283Z,3.50
2022-12-08T18:56:32.198Z,3.50
2022-12-08T18:59:03.921Z,3.50
2022-12-08T19:01:36.141Z,3.50
2022-12-08T19:06:53.384Z,3.50
2022-12-08T19:09:20.523Z,3.60
2022-12-08T19:11:47.273Z,3.60
2022-12-08T19:14:14.423Z,3.60
2022-12-08T19:16:41.204Z,3.60
2022-12-08T19:19:07.913Z,3.70
2022-12-08T19:21:34.724Z,3.70
2022-12-08T19:24:01.598Z,3.70
2022-12-08T19:26:28.689Z,3.70
2022-12-08T19:28:55.433Z,3.70
2022-12-08T19:31:22.283Z,3.70
2022-12-08T19:33:49.078Z,3.80
2022-12-08T19:36:18.294Z,3.80
2022-12-08T19:39:04.167Z,3.70
2022-12-08T19:41:49.883Z,3.80
2022-12-08T19:44:32.791Z,3.80
2022-12-08T19:47:00.300Z,3.80
2022-12-08T19:49:27.460Z,3.80
2022-12-08T19:51:54.223Z,3.80
2022-12-08T19:54:21.075Z,3.80
2022-12-08T19:56:48.016Z,3.90
2022-12-08T19:59:15.789Z,3.90
2022-12-08T20:01:44.124Z,3.90
2022-12-08T20:04:14.648Z,3.90
2022-12-08T20:06:42.133Z,3.90
2022-12-08T20:09:10.330Z,3.90
2022-12-08T20:11:38.076Z,3.90
2022-12-08T20:14:05.223Z,4.00
2022-12-08T20:16:32.339Z,4.00
2022-12-08T20:19:00.546Z,4.00
2022-12-08T20:21:27.314Z,4.00
2022-12-08T20:23:54.575Z,4.00
2022-12-08T20:26:22.726Z,4.00
2022-12-08T20:28:50.131Z,4.00
2022-12-08T20:31:24.675Z,4.00
2022-12-08T20:33:51.977Z,4.00
2022-12-08T20:36:20.803Z,4.00
2022-12-08T20:38:49.287Z,4.00
2022-12-08T20:41:16.631Z,4.00
2022-12-08T20:43:44.679Z,4.00
2022-12-08T20:46:14.291Z,4.00
2022-12-08T20:48:42.311Z,4.00
2022-12-08T20:51:11.982Z,4.10
2022-12-08T20:53:38.859Z,4.10
2022-12-08T20:56:05.782Z,4.10
2022-12-08T20:58:32.466Z,4.10
2022-12-08T21:01:08.947Z,4.10
2022-12-08T21:03:36.385Z,4.10
2022-12-08T21:06:03.528Z,4.20
2022-12-08T21:08:30.363Z,4.20
2022-12-08T21:10:57.337Z,4.20
2022-12-08T21:13:24.781Z,4.20
2022-12-08T21:15:51.629Z,4.20
2022-12-08T21:18:18.628Z,4.20
2022-12-08T21:20:45.518Z,4.20
2022-12-08T21:23:12.360Z,4.20
2022-12-08T21:25:44.942Z,4.30
2022-12-08T21:28:12.075Z,4.30
2022-12-08T21:30:43.144Z,4.20
2022-12-08T21:33:10.211Z,4.20
2022-12-08T21:35:37.281Z,4.30
2022-12-08T21:38:05.874Z,4.20
2022-12-08T21:40:35.222Z,4.20
2022-12-08T21:43:03.801Z,4.30
2022-12-08T21:45:30.888Z,4.30
2022-12-08T21:47:59.523Z,4.20
2022-12-08T21:50:27.593Z,4.20
2022-12-08T21:52:54.400Z,4.30
2022-12-08T21:55:22.726Z,4.20
2022-12-08T21:57:49.546Z,4.30
2022-12-08T22:00:17.720Z,4.30
2022-12-08T22:02:45.716Z,4.20
2022-12-08T22:05:12.781Z,4.20
2022-12-08T22:07:41.137Z,4.20
2022-12-08T22:10:10.401Z,4.20
2022-12-08T22:12:38.502Z,4.20
2022-12-08T22:15:06.859Z,4.20
2022-12-08T22:17:38.904Z,4.20
2022-12-08T22:20:07.873Z,4.20
2022-12-08T22:22:35.810Z,4.20
2022-12-08T22:25:04.519Z,4.30
2022-12-08T22:27:33.834Z,4.30
2022-12-08T22:30:00.741Z,4.20
2022-12-08T22:32:27.659Z,4.20
2022-12-08T22:34:54.664Z,4.20
2022-12-08T22:37:21.713Z,4.20
2022-12-08T22:39:48.506Z,4.20
2022-12-08T22:42:15.575Z,4.30
2022-12-08T22:44:42.384Z,4.20
2022-12-08T22:47:09.303Z,4.20
2022-12-08T22:49:36.883Z,4.20
2022-12-08T22:52:04.023Z,4.30
2022-12-08T22:54:31.042Z,4.30
2022-12-08T22:56:57.770Z,4.30
2022-12-08T22:59:24.919Z,4.20
2022-12-08T23:01:53.949Z,4.20
2022-12-08T23:04:20.920Z,4.20
2022-12-08T23:06:48.230Z,4.20
2022-12-08T23:09:15.284Z,4.20
2022-12-08T23:11:42.822Z,4.30
2022-12-08T23:14:09.573Z,4.20
2022-12-08T23:16:36.928Z,4.20
2022-12-08T23:19:03.857Z,4.20
2022-12-08T23:21:30.631Z,4.20
2022-12-08T23:23:57.364Z,4.20
2022-12-08T23:26:26.709Z,4.20
2022-12-08T23:28:53.728Z,4.20
2022-12-08T23:31:20.925Z,4.20
2022-12-08T23:33:47.897Z,4.20
2022-12-08T23:36:16.057Z,4.10
2022-12-08T23:38:43.185Z,4.10
2022-12-08T23:41:12.321Z,4.10
2022-12-08T23:43:48.148Z,4.10
2022-12-08T23:46:16.882Z,4.10
2022-12-08T23:48:44.208Z,4.00
2022-12-08T23:51:12.099Z,4.00
2022-12-08T23:53:39.091Z,4.00
2022-12-08T23:56:09.051Z,4.00
2022-12-08T23:58:36.640Z,3.90
